createdAt,value
2023-03-04T00:00:14.819Z,93.23
2023-03-04T00:01:17.268Z,93.56
2023-03-04T00:02:18.911Z,93.49
2023-03-04T00:03:21.597Z,93.67
2023-03-04T00:04:23.151Z,94.10
2023-03-04T00:05:27.545Z,94.07
2023-03-04T00:06:29.060Z,93.78
2023-03-04T00:07:31.610Z,93.81
2023-03-04T00:08:33.298Z,94.16
2023-03-04T00:09:35.808Z,94.38
2023-03-04T00:10:37.325Z,94.91
2023-03-04T00:11:39.750Z,95.17
2023-03-04T00:12:42.586Z,94.90
2023-03-04T00:13:45.100Z,95.05
2023-03-04T00:14:46.677Z,94.78
2023-03-04T00:15:49.950Z,94.87
2023-03-04T00:16:51.467Z,94.84
2023-03-04T00:17:53.917Z,94.51
2023-03-04T00:18:56.150Z,94.63
2023-03-04T00:19:58.748Z,94.69
2023-03-04T00:21:00.264Z,94.60
2023-03-04T00:22:02.829Z,94.02
2023-03-04T00:23:04.382Z,94.26
2023-03-04T00:24:07.839Z,94.17
2023-03-04T00:25:09.658Z,94.62
2023-03-04T00:26:13.313Z,94.56
2023-03-04T00:27:14.856Z,94.48
2023-03-04T00:28:18.630Z,95.05
2023-03-04T00:29:20.137Z,94.98
2023-03-04T00:30:22.855Z,94.43
2023-03-04T00:31:24.396Z,93.55
2023-03-04T00:32:27.021Z,93.31
2023-03-04T00:33:28.600Z,92.86
2023-03-04T00:34:32.832Z,92.44
2023-03-04T00:35:34.542Z,91.48
2023-03-04T00:36:37.047Z,91.18
2023-03-04T00:37:38.547Z,91.47
2023-03-04T00:38:40.995Z,91.61
2023-03-04T00:39:42.470Z,91.24
2023-03-04T00:40:44.919Z,91.09
2023-03-04T00:41:46.379Z,90.13
2023-03-04T00:42:48.882Z,89.82
2023-03-04T00:43:52.936Z,89.08
2023-03-04T00:44:55.344Z,88.71
2023-03-04T00:45:56.930Z,88.79
2023-03-04T00:46:59.372Z,88.55
2023-03-04T00:48:00.846Z,87.99
2023-03-04T00:49:03.464Z,87.42
2023-03-04T00:50:05.818Z,86.94
2023-03-04T00:51:08.350Z,86.74
2023-03-04T00:52:10.513Z,87.07
2023-03-04T00:53:12.957Z,87.48
2023-03-04T00:54:14.545Z,86.82
2023-03-04T00:55:17.201Z,87.78
2023-03-04T00:56:19.061Z,88.09
2023-03-04T00:57:21.614Z,87.70
2023-03-04T00:58:23.137Z,86.89
2023-03-04T00:59:26.937Z,87.12
2023-03-04T01:00:28.922Z,87.49
2023-03-04T01:01:31.398Z,87.14
2023-03-04T01:02:33.026Z,87.13
2023-03-04T01:03:35.509Z,86.36
2023-03-04T01:04:37.520Z,86.27
2023-03-04T01:05:40.034Z,85.96
2023-03-04T01:06:41.611Z,85.76
2023-03-04T01:07:44.327Z,84.75
2023-03-04T01:08:46.808Z,85.20
2023-03-04T01:09:48.338Z,85.82
2023-03-04T01:10:51.020Z,86.47
2023-03-04T01:11:52.858Z,87.06
2023-03-04T01:12:55.360Z,87.68
2023-03-04T01:13:56.880Z,87.97
2023-03-04T01:15:00.856Z,88.18
2023-03-04T01:16:03.572Z,88.32
2023-03-04T01:17:06.047Z,88.43
2023-03-04T01:18:07.785Z,88.23
2023-03-04T01:19:10.269Z,88.43
2023-03-04T01:20:13.303Z,89.42
2023-03-04T01:21:15.932Z,90.28
2023-03-04T01:22:19.029Z,91.03
2023-03-04T01:23:21.630Z,90.45
2023-03-04T01:24:23.124Z,89.30
2023-03-04T01:25:25.571Z,89.65
2023-03-04T01:26:27.074Z,89.94
2023-03-04T01:27:29.779Z,91.70
2023-03-04T01:28:35.678Z,91.40
2023-03-04T01:29:38.174Z,90.64
2023-03-04T01:30:41.430Z,90.34
2023-03-04T01:31:43.930Z,89.80
2023-03-04T01:32:45.463Z,89.55
2023-03-04T01:33:47.910Z,89.36
2023-03-04T01:34:49.428Z,89.59
2023-03-04T01:35:52.023Z,90.32
2023-03-04T01:36:53.581Z,91.06
2023-03-04T01:37:56.296Z,90.86
2023-03-04T01:38:57.810Z,90.06
2023-03-04T01:40:00.303Z,90.31
2023-03-04T01:41:02.289Z,90.89
2023-03-04T01:42:04.960Z,91.05
2023-03-04T01:43:07.694Z,91.12
2023-03-04T01:44:11.620Z,90.24
2023-03-04T01:45:15.397Z,90.87
2023-03-04T01:46:21.111Z,90.94
2023-03-04T01:47:26.401Z,91.88
2023-03-04T01:48:34.010Z,91.39
2023-03-04T01:49:35.541Z,90.87
2023-03-04T01:50:37.995Z,90.06
2023-03-04T01:51:40.459Z,91.30
2023-03-04T01:52:43.901Z,91.75
2023-03-04T01:53:47.995Z,91.90
2023-03-04T01:54:50.605Z,91.80
2023-03-04T01:55:53.365Z,91.05
2023-03-04T01:56:57.326Z,90.54
2023-03-04T01:57:59.073Z,90.09
2023-03-04T01:59:09.966Z,89.57
2023-03-04T02:00:18.670Z,92.05
2023-03-04T02:01:22.511Z,91.51
2023-03-04T02:02:24.004Z,90.54
2023-03-04T02:03:26.614Z,89.47
2023-03-04T02:04:31.127Z,90.79
2023-03-04T02:05:34.122Z,91.02
2023-03-04T02:06:38.112Z,90.93
2023-03-04T02:07:39.702Z,89.98
2023-03-04T02:08:42.468Z,89.24
2023-03-04T02:09:43.985Z,88.79
2023-03-04T02:10:47.069Z,90.85
2023-03-04T02:11:50.629Z,92.17
2023-03-04T02:12:54.003Z,92.27
2023-03-04T02:13:55.520Z,93.25
2023-03-04T02:14:58.033Z,92.82
2023-03-04T02:15:59.593Z,91.73
2023-03-04T02:17:03.402Z,92.38
2023-03-04T02:18:13.865Z,92.04
2023-03-04T02:19:25.491Z,91.87
2023-03-04T02:20:43.525Z,91.82
2023-03-04T02:21:46.021Z,93.16
2023-03-04T02:22:57.584Z,94.23
2023-03-04T02:24:10.179Z,93.50
2023-03-04T02:25:18.615Z,95.40
2023-03-04T02:26:24.130Z,94.98
2023-03-04T02:27:25.751Z,94.11
2023-03-04T02:28:28.296Z,93.59
2023-03-04T02:29:29.841Z,94.29
2023-03-04T02:30:32.392Z,94.84
2023-03-04T02:31:36.529Z,95.93
2023-03-04T02:32:39.147Z,97.51
2023-03-04T02:33:40.677Z,97.66
2023-03-04T02:34:49.734Z,97.87
2023-03-04T02:35:51.335Z,97.99
2023-03-04T02:36:55.040Z,98.64
2023-03-04T02:37:56.526Z,98.91
2023-03-04T02:39:05.184Z,98.39
2023-03-04T02:40:14.383Z,99.22
2023-03-04T02:41:21.117Z,99.45
2023-03-04T02:42:24.006Z,100.00
2023-03-04T02:43:27.185Z,100.00
2023-03-04T02:44:30.721Z,100.00
2023-03-04T02:45:37.803Z,100.00
2023-03-04T02:46:39.419Z,100.00
2023-03-04T02:47:42.014Z,100.00
2023-03-04T02:48:43.563Z,100.00
2023-03-04T02:49:46.832Z,100.00
2023-03-04T02:50:51.001Z,100.00
2023-03-04T02:51:55.148Z,100.00
2023-03-04T02:52:56.701Z,100.00
2023-03-04T02:53:59.225Z,100.00
2023-03-04T02:55:00.782Z,100.00
2023-03-04T02:56:03.334Z,100.00
2023-03-04T02:57:06.984Z,100.00
2023-03-04T02:58:10.954Z,100.00
2023-03-04T02:59:12.482Z,100.00
2023-03-04T03:00:16.156Z,100.00
2023-03-04T03:01:17.671Z,100.00
2023-03-04T03:02:20.249Z,100.00
2023-03-04T03:03:21.936Z,100.00
2023-03-04T03:04:26.103Z,100.00
2023-03-04T03:05:31.085Z,100.00
2023-03-04T03:06:33.808Z,100.00
2023-03-04T03:07:35.324Z,100.00
2023-03-04T03:08:37.866Z,100.00
2023-03-04T03:09:39.378Z,100.00
2023-03-04T03:10:41.820Z,100.00
2023-03-04T03:11:43.469Z,99.62
2023-03-04T03:12:46.141Z,98.20
2023-03-04T03:13:49.020Z,97.91
2023-03-04T03:14:51.468Z,97.41
2023-03-04T03:15:53.005Z,96.54
2023-03-04T03:16:55.558Z,97.98
2023-03-04T03:17:57.511Z,97.58
2023-03-04T03:18:59.970Z,97.82
2023-03-04T03:20:01.597Z,99.80
2023-03-04T03:21:04.165Z,100.00
2023-03-04T03:22:05.869Z,100.00
2023-03-04T03:23:09.009Z,100.00
2023-03-04T03:24:10.649Z,99.17
2023-03-04T03:25:15.447Z,98.02
2023-03-04T03:26:17.422Z,96.03
2023-03-04T03:27:20.335Z,94.63
2023-03-04T03:28:21.831Z,93.77
2023-03-04T03:29:25.640Z,93.18
2023-03-04T03:30:27.183Z,92.04
2023-03-04T03:31:29.816Z,91.41
2023-03-04T03:32:31.380Z,91.01
2023-03-04T03:33:34.452Z,90.69
2023-03-04T03:34:36.044Z,89.87
2023-03-04T03:35:38.554Z,89.42
2023-03-04T03:36:40.184Z,89.03
2023-03-04T03:37:42.723Z,89.14
2023-03-04T03:38:44.277Z,89.55
2023-03-04T03:39:46.788Z,89.54
2023-03-04T03:40:49.293Z,88.87
2023-03-04T03:41:50.825Z,88.33
2023-03-04T03:42:53.339Z,88.20
2023-03-04T03:43:55.807Z,88.52
2023-03-04T03:44:58.656Z,88.73
2023-03-04T03:46:01.182Z,88.83
2023-03-04T03:47:03.103Z,88.73
2023-03-04T03:48:05.859Z,88.11
2023-03-04T03:49:07.397Z,87.78
2023-03-04T03:50:10.723Z,87.93
2023-03-04T03:51:12.379Z,87.56
2023-03-04T03:52:14.857Z,87.30
2023-03-04T03:53:16.517Z,87.42
2023-03-04T03:54:19.025Z,87.41
2023-03-04T03:55:21.447Z,86.95
2023-03-04T03:56:23.975Z,86.65
2023-03-04T03:57:25.518Z,86.66
2023-03-04T03:58:28.009Z,86.83
2023-03-04T03:59:29.586Z,86.57
2023-03-04T04:00:33.413Z,86.92
2023-03-04T04:01:34.986Z,86.77
2023-03-04T04:02:37.790Z,86.75
2023-03-04T04:03:39.753Z,87.25
2023-03-04T04:04:42.239Z,88.72
2023-03-04T04:05:43.786Z,89.24
2023-03-04T04:06:46.203Z,89.38
2023-03-04T04:07:47.731Z,88.43
2023-03-04T04:08:50.326Z,88.14
2023-03-04T04:09:51.939Z,87.94
2023-03-04T04:10:54.378Z,87.83
2023-03-04T04:11:56.951Z,87.27
2023-03-04T04:13:05.479Z,87.15
2023-03-04T04:14:07.014Z,87.18
2023-03-04T04:15:11.896Z,87.29
2023-03-04T04:16:14.892Z,86.91
2023-03-04T04:17:17.598Z,87.02
2023-03-04T04:18:19.257Z,87.06
2023-03-04T04:19:22.132Z,87.34
2023-03-04T04:20:26.097Z,88.63
2023-03-04T04:21:28.704Z,89.42
2023-03-04T04:22:30.257Z,89.68
2023-03-04T04:23:32.730Z,88.82
2023-03-04T04:24:34.308Z,88.28
2023-03-04T04:25:36.893Z,87.43
2023-03-04T04:26:38.641Z,86.71
2023-03-04T04:27:41.142Z,87.57
2023-03-04T04:28:42.633Z,87.26
2023-03-04T04:29:45.108Z,88.52
2023-03-04T04:30:46.639Z,89.96
2023-03-04T04:31:50.475Z,90.29
2023-03-04T04:32:52.032Z,91.00
2023-03-04T04:33:54.451Z,90.69
2023-03-04T04:34:55.944Z,91.33
2023-03-04T04:35:58.474Z,91.89
2023-03-04T04:37:01.229Z,92.58
2023-03-04T04:38:02.773Z,92.51
2023-03-04T04:39:05.791Z,92.47
2023-03-04T04:40:08.312Z,94.38
2023-03-04T04:41:20.111Z,95.78
2023-03-04T04:42:21.746Z,97.19
2023-03-04T04:43:24.236Z,97.30
2023-03-04T04:44:25.934Z,98.38
2023-03-04T04:45:28.512Z,97.90
2023-03-04T04:46:30.080Z,98.29
2023-03-04T04:47:33.868Z,98.67
2023-03-04T04:48:35.315Z,98.14
2023-03-04T04:49:37.961Z,97.27
2023-03-04T04:50:39.508Z,97.19
2023-03-04T04:51:42.015Z,98.55
2023-03-04T04:52:43.499Z,99.13
2023-03-04T04:53:45.934Z,98.65
2023-03-04T04:54:47.483Z,98.00
2023-03-04T04:55:49.923Z,97.98
2023-03-04T04:56:51.483Z,97.65
2023-03-04T04:57:53.895Z,97.98
2023-03-04T04:58:59.083Z,97.67
2023-03-04T05:00:00.883Z,96.10
2023-03-04T05:01:03.336Z,95.50
2023-03-04T05:02:05.079Z,94.33
2023-03-04T05:03:08.871Z,94.02
2023-03-04T05:04:10.705Z,93.57
2023-03-04T05:05:13.155Z,92.39
2023-03-04T05:06:14.639Z,92.54
2023-03-04T05:07:17.332Z,92.76
2023-03-04T05:08:18.778Z,92.13
2023-03-04T05:09:22.990Z,91.80
2023-03-04T05:10:24.731Z,91.17
2023-03-04T05:11:27.343Z,90.89
2023-03-04T05:12:28.829Z,91.15
2023-03-04T05:13:31.347Z,90.91
2023-03-04T05:14:32.913Z,90.55
2023-03-04T05:15:35.388Z,90.08
2023-03-04T05:16:36.886Z,89.65
2023-03-04T05:17:39.319Z,89.24
2023-03-04T05:18:42.624Z,89.59
2023-03-04T05:19:45.031Z,89.27
2023-03-04T05:20:50.506Z,89.51
2023-03-04T05:21:52.916Z,89.44
2023-03-04T05:22:54.695Z,88.92
2023-03-04T05:23:57.177Z,88.88
2023-03-04T05:24:58.676Z,88.43
2023-03-04T05:26:01.342Z,88.45
2023-03-04T05:27:03.121Z,88.43
2023-03-04T05:28:07.208Z,88.42
2023-03-04T05:29:08.722Z,88.08
2023-03-04T05:30:12.906Z,88.00
2023-03-04T05:31:14.836Z,87.89
2023-03-04T05:32:17.444Z,87.36
2023-03-04T05:33:19.606Z,87.50
2023-03-04T05:34:23.482Z,87.87
2023-03-04T05:35:27.212Z,88.17
2023-03-04T05:36:30.955Z,88.25
2023-03-04T05:37:32.441Z,87.45
2023-03-04T05:38:35.350Z,88.09
2023-03-04T05:39:36.883Z,87.80
2023-03-04T05:40:39.651Z,87.80
2023-03-04T05:41:41.110Z,88.16
2023-03-04T05:42:43.517Z,87.84
2023-03-04T05:43:44.962Z,88.09
2023-03-04T05:44:47.406Z,89.05
2023-03-04T05:45:49.262Z,89.02
2023-03-04T05:46:51.858Z,88.62
2023-03-04T05:47:53.682Z,88.08
2023-03-04T05:48:56.226Z,87.76
2023-03-04T05:49:59.087Z,88.21
2023-03-04T05:51:02.682Z,88.22
2023-03-04T05:52:04.210Z,88.42
2023-03-04T05:53:06.681Z,88.31
2023-03-04T05:54:08.192Z,88.02
2023-03-04T05:55:11.362Z,88.76
2023-03-04T05:56:15.659Z,88.24
2023-03-04T05:57:17.142Z,87.62
2023-03-04T05:58:20.286Z,87.74
2023-03-04T05:59:21.837Z,88.24
2023-03-04T06:00:24.368Z,88.52
2023-03-04T06:01:26.289Z,88.25
2023-03-04T06:02:28.739Z,88.09
2023-03-04T06:03:30.311Z,88.27
2023-03-04T06:04:33.037Z,88.36
2023-03-04T06:05:35.958Z,88.10
2023-03-04T06:06:38.385Z,87.71
2023-03-04T06:07:43.214Z,87.42
2023-03-04T06:08:45.687Z,87.47
2023-03-04T06:09:47.156Z,87.07
2023-03-04T06:10:54.078Z,86.48
2023-03-04T06:11:55.630Z,86.68
2023-03-04T06:12:58.055Z,87.05
2023-03-04T06:13:59.625Z,87.41
2023-03-04T06:15:02.870Z,87.73
2023-03-04T06:16:06.032Z,87.43
2023-03-04T06:17:07.572Z,86.44
2023-03-04T06:18:10.192Z,85.98
2023-03-04T06:19:11.771Z,86.22
2023-03-04T06:20:14.333Z,86.15
2023-03-04T06:21:17.179Z,85.94
2023-03-04T06:22:19.854Z,86.20
2023-03-04T06:23:21.427Z,85.71
2023-03-04T06:24:23.848Z,85.64
2023-03-04T06:25:25.403Z,86.00
2023-03-04T06:26:28.241Z,86.18
2023-03-04T06:27:29.956Z,86.25
2023-03-04T06:28:32.478Z,86.46
2023-03-04T06:29:33.975Z,86.20
2023-03-04T06:30:36.522Z,85.49
2023-03-04T06:31:38.162Z,85.50
2023-03-04T06:32:44.225Z,85.41
2023-03-04T06:33:46.248Z,84.82
2023-03-04T06:34:48.822Z,84.75
2023-03-04T06:35:54.563Z,84.53
2023-03-04T06:36:58.388Z,85.21
2023-03-04T06:37:59.919Z,85.86
2023-03-04T06:39:03.523Z,85.20
2023-03-04T06:40:07.694Z,85.37
2023-03-04T06:41:10.839Z,85.67
2023-03-04T06:42:13.434Z,85.74
2023-03-04T06:43:15.429Z,85.46
2023-03-04T06:44:18.260Z,85.03
2023-03-04T06:45:20.768Z,84.87
2023-03-04T06:46:22.993Z,84.78
2023-03-04T06:47:25.566Z,84.52
2023-03-04T06:48:28.153Z,84.09
2023-03-04T06:49:30.614Z,84.42
2023-03-04T06:50:33.139Z,85.18
2023-03-04T06:51:34.707Z,85.83
2023-03-04T06:52:38.570Z,86.17
2023-03-04T06:53:41.119Z,86.03
2023-03-04T06:54:43.577Z,86.23
2023-03-04T06:55:45.082Z,85.90
2023-03-04T06:56:47.523Z,86.04
2023-03-04T06:57:49.000Z,85.46
2023-03-04T06:58:51.720Z,85.27
2023-03-04T06:59:53.278Z,84.98
2023-03-04T07:00:55.820Z,84.75
2023-03-04T07:01:57.611Z,84.08
2023-03-04T07:03:00.528Z,84.19
2023-03-04T07:04:02.627Z,83.58
2023-03-04T07:05:05.790Z,84.20
2023-03-04T07:06:07.371Z,84.11
2023-03-04T07:07:09.871Z,84.07
2023-03-04T07:08:12.711Z,83.77
2023-03-04T07:09:15.123Z,83.15
2023-03-04T07:10:18.441Z,83.01
2023-03-04T07:11:21.990Z,82.86
2023-03-04T07:12:24.466Z,82.75
2023-03-04T07:13:26.248Z,83.03
2023-03-04T07:14:28.879Z,83.54
2023-03-04T07:15:30.826Z,82.85
2023-03-04T07:16:33.847Z,83.20
2023-03-04T07:17:35.408Z,83.09
2023-03-04T07:18:37.943Z,83.37
2023-03-04T07:19:39.491Z,84.42
2023-03-04T07:20:41.908Z,84.62
2023-03-04T07:21:43.474Z,84.34
2023-03-04T07:22:46.095Z,84.51
2023-03-04T07:23:48.992Z,84.49
2023-03-04T07:24:51.443Z,84.15
2023-03-04T07:25:53.102Z,83.91
2023-03-04T07:26:55.614Z,84.27
2023-03-04T07:27:57.145Z,84.44
2023-03-04T07:28:59.950Z,84.49
2023-03-04T07:30:01.454Z,84.76
2023-03-04T07:31:11.888Z,84.77
2023-03-04T07:32:14.560Z,85.41
2023-03-04T07:33:16.365Z,85.68
2023-03-04T07:34:18.738Z,85.72
2023-03-04T07:35:20.483Z,85.41
2023-03-04T07:36:22.935Z,84.92
2023-03-04T07:37:24.958Z,85.57
2023-03-04T07:38:30.284Z,86.36
2023-03-04T07:39:34.070Z,85.66
2023-03-04T07:40:35.735Z,84.88
2023-03-04T07:41:38.209Z,84.60
2023-03-04T07:42:39.752Z,84.47
2023-03-04T07:43:42.604Z,84.34
2023-03-04T07:44:44.076Z,84.40
2023-03-04T07:45:46.696Z,84.24
2023-03-04T07:46:48.184Z,83.64
2023-03-04T07:47:50.645Z,84.20
2023-03-04T07:48:52.442Z,84.30
2023-03-04T07:49:56.454Z,84.58
2023-03-04T07:51:06.497Z,84.63
2023-03-04T07:52:09.467Z,85.63
2023-03-04T07:53:11.466Z,85.32
2023-03-04T07:54:13.938Z,84.91
2023-03-04T07:55:17.225Z,85.19
2023-03-04T07:56:21.466Z,84.97
2023-03-04T07:57:22.947Z,85.28
2023-03-04T07:58:25.726Z,85.08
2023-03-04T07:59:28.315Z,84.69
2023-03-04T08:00:29.795Z,84.99
2023-03-04T08:01:33.804Z,83.89
2023-03-04T08:02:35.323Z,84.46
2023-03-04T08:03:44.639Z,84.90
2023-03-04T08:04:47.183Z,85.18
2023-03-04T08:05:48.740Z,85.19
2023-03-04T08:06:51.521Z,84.11
2023-03-04T08:07:53.046Z,84.35
2023-03-04T08:08:59.409Z,84.25
2023-03-04T08:10:01.632Z,84.56
2023-03-04T08:11:07.494Z,84.45
2023-03-04T08:12:09.113Z,84.74
2023-03-04T08:13:11.561Z,84.28
2023-03-04T08:14:14.807Z,84.39
2023-03-04T08:15:16.573Z,84.26
2023-03-04T08:16:20.541Z,84.71
2023-03-04T08:17:22.057Z,84.75
2023-03-04T08:18:24.759Z,84.73
2023-03-04T08:19:27.294Z,84.65
2023-03-04T08:20:28.823Z,84.70
2023-03-04T08:21:31.599Z,84.13
2023-03-04T08:22:33.075Z,84.42
2023-03-04T08:23:35.656Z,83.87
2023-03-04T08:24:37.208Z,84.13
2023-03-04T08:25:40.844Z,84.02
2023-03-04T08:26:46.842Z,84.19
2023-03-04T08:27:48.543Z,83.97
2023-03-04T08:28:51.632Z,84.12
2023-03-04T08:29:53.211Z,84.28
2023-03-04T08:30:56.706Z,84.48
2023-03-04T08:31:59.600Z,84.63
2023-03-04T08:33:03.885Z,84.52
2023-03-04T08:34:07.620Z,84.67
2023-03-04T08:35:09.206Z,84.25
2023-03-04T08:36:11.859Z,84.32
2023-03-04T08:37:14.313Z,83.67
2023-03-04T08:38:15.777Z,84.67
2023-03-04T08:39:20.018Z,85.68
2023-03-04T08:40:21.546Z,85.53
2023-03-04T08:41:26.171Z,85.62
2023-03-04T08:42:29.930Z,84.82
2023-03-04T08:43:31.544Z,84.86
2023-03-04T08:44:33.967Z,84.34
2023-03-04T08:45:35.574Z,84.42
2023-03-04T08:46:38.851Z,83.96
2023-03-04T08:47:40.834Z,83.74
2023-03-04T08:48:43.531Z,83.71
2023-03-04T08:49:45.044Z,83.47
2023-03-04T08:50:48.422Z,82.95
2023-03-04T08:51:50.825Z,82.98
2023-03-04T08:52:52.264Z,82.44
2023-03-04T08:53:54.729Z,82.00
2023-03-04T08:54:56.494Z,82.13
2023-03-04T08:55:58.971Z,82.31
2023-03-04T08:57:00.530Z,82.04
2023-03-04T08:58:04.951Z,82.73
2023-03-04T08:59:06.391Z,82.37
2023-03-04T09:00:10.175Z,82.48
2023-03-04T09:01:13.184Z,82.03
2023-03-04T09:02:15.728Z,81.54
2023-03-04T09:03:20.443Z,82.30
2023-03-04T09:04:22.034Z,82.28
2023-03-04T09:05:24.562Z,82.45
2023-03-04T09:06:26.084Z,82.54
2023-03-04T09:07:28.516Z,82.75
2023-03-04T09:08:30.571Z,81.61
2023-03-04T09:09:33.017Z,81.91
2023-03-04T09:10:34.529Z,81.06
2023-03-04T09:11:37.081Z,81.19
2023-03-04T09:12:38.708Z,81.33
2023-03-04T09:13:42.715Z,82.02
2023-03-04T09:14:44.215Z,81.63
2023-03-04T09:15:48.060Z,82.00
2023-03-04T09:16:50.472Z,81.99
2023-03-04T09:17:51.976Z,82.39
2023-03-04T09:18:54.464Z,81.50
2023-03-04T09:19:56.840Z,81.62
2023-03-04T09:20:59.416Z,82.31
2023-03-04T09:22:00.974Z,82.25
2023-03-04T09:23:03.491Z,82.07
2023-03-04T09:24:05.703Z,81.86
2023-03-04T09:25:12.878Z,81.88
2023-03-04T09:26:18.601Z,81.37
2023-03-04T09:27:20.148Z,81.69
2023-03-04T09:28:22.535Z,81.47
2023-03-04T09:29:25.529Z,81.74
2023-03-04T09:30:29.072Z,81.17
2023-03-04T09:31:31.096Z,81.40
2023-03-04T09:32:33.644Z,81.31
2023-03-04T09:33:35.184Z,80.83
2023-03-04T09:34:37.568Z,80.84
2023-03-04T09:35:39.099Z,80.77
2023-03-04T09:36:41.633Z,81.28
2023-03-04T09:37:43.191Z,81.66
2023-03-04T09:38:46.293Z,81.66
2023-03-04T09:39:49.944Z,81.79
2023-03-04T09:40:52.433Z,81.54
2023-03-04T09:41:58.060Z,81.10
2023-03-04T09:43:03.479Z,81.78
2023-03-04T09:44:12.815Z,81.63
2023-03-04T09:45:19.922Z,81.14
2023-03-04T09:46:30.401Z,81.94
2023-03-04T09:47:34.531Z,81.56
2023-03-04T09:48:44.457Z,81.56
2023-03-04T09:49:52.308Z,81.24
2023-03-04T09:51:15.508Z,81.22
2023-03-04T09:52:31.287Z,81.28
2023-03-04T09:53:41.727Z,81.62
2023-03-04T09:55:04.612Z,81.64
2023-03-04T09:56:07.413Z,81.31
2023-03-04T09:57:24.033Z,81.13
2023-03-04T09:58:38.647Z,81.04
2023-03-04T09:59:46.417Z,81.10
2023-03-04T10:00:57.297Z,81.31
2023-03-04T10:02:03.463Z,81.18
2023-03-04T10:03:13.212Z,81.04
2023-03-04T10:04:18.993Z,81.70
2023-03-04T10:05:23.077Z,81.02
2023-03-04T10:06:26.168Z,81.14
2023-03-04T10:07:36.460Z,80.98
2023-03-04T10:08:46.321Z,81.36
2023-03-04T10:09:52.999Z,80.85
2023-03-04T10:10:56.886Z,80.48
2023-03-04T10:12:03.395Z,80.91
2023-03-04T10:13:11.948Z,80.41
2023-03-04T10:14:32.576Z,80.35
2023-03-04T10:15:38.985Z,81.22
2023-03-04T10:16:49.829Z,80.56
2023-03-04T10:17:55.005Z,80.24
2023-03-04T10:19:03.001Z,79.68
2023-03-04T10:20:07.752Z,80.13
2023-03-04T10:21:21.230Z,80.55
2023-03-04T10:22:30.285Z,80.22
2023-03-04T10:23:34.436Z,79.89
2023-03-04T10:24:36.852Z,79.15
2023-03-04T10:25:43.922Z,79.58
2023-03-04T10:26:48.164Z,79.87
2023-03-04T10:27:52.501Z,79.70
2023-03-04T10:28:54.981Z,79.08
2023-03-04T10:29:58.118Z,79.08
2023-03-04T10:31:05.875Z,78.17
2023-03-04T10:32:14.595Z,77.42
2023-03-04T10:33:19.352Z,77.55
2023-03-04T10:34:21.760Z,77.17
2023-03-04T10:35:32.433Z,77.53
2023-03-04T10:36:45.638Z,78.27
2023-03-04T10:37:51.346Z,78.04
2023-03-04T10:38:55.112Z,77.95
2023-03-04T10:40:03.551Z,77.71
2023-03-04T10:41:12.812Z,77.99
2023-03-04T10:42:30.039Z,78.37
2023-03-04T10:43:31.689Z,78.88
2023-03-04T10:44:38.060Z,79.04
2023-03-04T10:45:40.376Z,78.33
2023-03-04T10:46:45.045Z,78.56
2023-03-04T10:47:54.503Z,78.49
2023-03-04T10:48:56.565Z,78.44
2023-03-04T10:50:01.140Z,78.48
2023-03-04T10:51:19.503Z,78.39
2023-03-04T10:52:29.798Z,78.71
2023-03-04T10:53:38.260Z,78.15
2023-03-04T10:54:48.281Z,78.45
2023-03-04T10:55:49.913Z,77.74
2023-03-04T10:57:02.834Z,77.40
2023-03-04T10:58:07.430Z,77.47
2023-03-04T10:59:32.630Z,77.07
2023-03-04T11:00:37.842Z,77.78
2023-03-04T11:01:39.467Z,78.08
2023-03-04T11:02:41.882Z,77.65
2023-03-04T11:03:49.518Z,77.75
2023-03-04T11:04:55.630Z,76.79
2023-03-04T11:06:11.131Z,77.23
2023-03-04T11:07:15.566Z,76.88
2023-03-04T11:08:20.109Z,76.72
2023-03-04T11:09:24.220Z,76.08
2023-03-04T11:10:31.018Z,76.28
2023-03-04T11:11:42.875Z,75.59
2023-03-04T11:12:50.642Z,74.68
2023-03-04T11:13:56.242Z,75.62
2023-03-04T11:14:59.122Z,75.62
2023-03-04T11:16:05.425Z,75.91
2023-03-04T11:17:19.861Z,74.83
2023-03-04T11:18:26.707Z,74.28
2023-03-04T11:19:38.261Z,74.32
2023-03-04T11:20:43.782Z,73.62
2023-03-04T11:21:45.607Z,73.38
2023-03-04T11:22:48.297Z,73.39
2023-03-04T11:23:56.761Z,73.65
2023-03-04T11:25:04.570Z,73.94
2023-03-04T11:26:10.480Z,73.86
2023-03-04T11:27:20.349Z,73.83
2023-03-04T11:28:26.478Z,73.26
2023-03-04T11:29:34.358Z,73.04
2023-03-04T11:30:42.323Z,73.38
2023-03-04T11:31:52.492Z,73.27
2023-03-04T11:32:58.946Z,72.94
2023-03-04T11:34:08.907Z,73.74
2023-03-04T11:35:19.723Z,73.92
2023-03-04T11:36:25.350Z,73.71
2023-03-04T11:37:33.608Z,73.62
2023-03-04T11:38:40.026Z,73.28
2023-03-04T11:39:47.152Z,72.85
2023-03-04T11:40:53.140Z,72.71
2023-03-04T11:41:59.786Z,72.48
2023-03-04T11:43:07.477Z,72.63
2023-03-04T11:44:12.523Z,72.15
2023-03-04T11:45:28.329Z,72.25
2023-03-04T11:47:00.399Z,72.31
2023-03-04T11:48:09.106Z,72.65
2023-03-04T11:49:47.987Z,72.43
2023-03-04T11:50:55.084Z,73.26
2023-03-04T11:52:06.785Z,72.95
2023-03-04T11:53:47.006Z,72.11
2023-03-04T11:55:02.593Z,72.44
2023-03-04T11:56:25.664Z,71.76
2023-03-04T11:57:35.535Z,71.47
2023-03-04T11:59:09.588Z,71.61
2023-03-04T12:00:25.531Z,71.16
2023-03-04T12:01:33.263Z,71.70
2023-03-04T12:02:42.249Z,71.61
2023-03-04T12:03:57.345Z,72.12
2023-03-04T12:05:20.835Z,72.50
2023-03-04T12:06:34.980Z,72.62
2023-03-04T12:08:09.414Z,71.86
2023-03-04T12:09:31.766Z,72.06
2023-03-04T12:10:42.580Z,71.75
2023-03-04T12:11:53.895Z,71.84
2023-03-04T12:13:13.124Z,71.43
2023-03-04T12:14:41.278Z,71.02
2023-03-04T12:15:52.180Z,70.58
2023-03-04T12:17:12.324Z,70.54
2023-03-04T12:18:37.605Z,70.97
2023-03-04T12:19:53.873Z,70.33
2023-03-04T12:21:16.029Z,69.68
2023-03-04T12:22:36.873Z,70.18
2023-03-04T12:24:14.846Z,70.52
2023-03-04T12:25:35.027Z,70.78
2023-03-04T12:26:39.845Z,70.78
2023-03-04T12:27:49.247Z,70.53
2023-03-04T12:29:00.751Z,70.43
2023-03-04T12:30:06.910Z,70.51
2023-03-04T12:31:33.085Z,70.56
2023-03-04T12:32:44.086Z,70.87
2023-03-04T12:33:59.518Z,70.62
2023-03-04T12:35:16.429Z,70.28
2023-03-04T12:36:28.398Z,70.51
2023-03-04T12:38:03.710Z,71.11
2023-03-04T12:39:24.830Z,71.84
2023-03-04T12:40:37.383Z,71.92
2023-03-04T12:41:50.423Z,72.21
2023-03-04T12:43:03.811Z,71.54
2023-03-04T12:44:17.040Z,71.42
2023-03-04T12:45:25.463Z,71.55
2023-03-04T12:46:38.330Z,70.70
2023-03-04T12:47:51.518Z,70.20
2023-03-04T12:49:10.204Z,70.02
2023-03-04T12:50:32.954Z,70.98
2023-03-04T12:51:41.902Z,71.29
2023-03-04T12:52:55.066Z,71.41
2023-03-04T12:54:12.168Z,71.22
2023-03-04T12:55:18.993Z,70.70
2023-03-04T12:56:27.380Z,70.71
2023-03-04T12:57:31.733Z,70.30
2023-03-04T12:58:37.048Z,70.01
2023-03-04T12:59:43.113Z,70.11
2023-03-04T13:00:53.249Z,70.20
2023-03-04T13:02:04.997Z,70.39
2023-03-04T13:03:16.446Z,70.14
2023-03-04T13:04:28.191Z,70.25
2023-03-04T13:05:44.992Z,70.64
2023-03-04T13:06:53.970Z,70.33
2023-03-04T13:08:05.025Z,70.13
2023-03-04T13:09:17.044Z,70.31
2023-03-04T13:10:22.088Z,70.04
2023-03-04T13:11:47.200Z,70.00
2023-03-04T13:12:51.860Z,70.43
2023-03-04T13:14:01.953Z,70.15
2023-03-04T13:15:27.279Z,70.60
2023-03-04T13:16:32.697Z,70.91
2023-03-04T13:17:43.237Z,70.32
2023-03-04T13:18:45.129Z,71.16
2023-03-04T13:19:52.518Z,71.23
2023-03-04T13:21:21.854Z,71.25
2023-03-04T13:22:46.093Z,71.06
2023-03-04T13:23:48.731Z,71.32
2023-03-04T13:24:51.081Z,71.37
2023-03-04T13:26:21.530Z,71.29
2023-03-04T13:27:48.447Z,71.12
2023-03-04T13:29:10.190Z,69.11
2023-03-04T13:30:44.268Z,69.06
2023-03-04T13:32:01.206Z,69.49
2023-03-04T13:33:49.902Z,69.40
2023-03-04T13:34:53.945Z,69.52
2023-03-04T13:36:01.770Z,70.03
2023-03-04T13:37:04.863Z,69.96
2023-03-04T13:38:22.533Z,70.64
2023-03-04T13:39:31.577Z,70.67
2023-03-04T13:40:37.589Z,70.66
2023-03-04T13:41:48.447Z,70.69
2023-03-04T13:42:51.859Z,70.73
2023-03-04T13:43:54.177Z,70.61
2023-03-04T13:45:02.240Z,70.89
2023-03-04T13:46:38.756Z,69.93
2023-03-04T13:47:44.997Z,68.69
2023-03-04T13:49:02.701Z,68.73
2023-03-04T13:50:25.463Z,67.90
2023-03-04T13:51:30.884Z,67.93
2023-03-04T13:52:40.058Z,68.44
2023-03-04T13:53:45.084Z,68.95
2023-03-04T13:54:46.606Z,68.76
2023-03-04T13:56:08.061Z,68.77
2023-03-04T13:57:20.338Z,68.80
2023-03-04T13:58:26.676Z,69.42